Главная страница
METAR-TAF:

METAR-TAF

Аэропорты :

Воронеж, Россия

широта: 51-39N, долгота: 039-15E, высота над уровнем моря: 154 м

Текущие метеонаблюдения

Эта сводка был подготовлена 33 минут назад, в 15:30 UTC
Ветер 12 Узел от юго-восточный
Температура 3°C
Влажность 93%
Давление 1014 hPa
Видимость: 9000 м
Сплошная облачность на высоте 500 фута
небольшой дождь

METAR: UUOO 151530Z 14006MPS 9000 -RA OVC005 03/02 Q1014 R12/290250 TEMPO OVC003 RMK QFE746

Время: 19:03 (16:03 UTC)

Прогноз

Эта сводка был подготовлена 2 часа и 3 минут назад, в 14:00 UTC
Прогноз действительный с 15-го 15 UTC до 15-го 24 UTC
Ветер 14 Узел от юго-восточный
Видимость: 3100 м
Сплошная облачность на высоте 400 фута
небольшой дождь, дымка
временами
С 15-го 16 UTC до 15-го 20 UTC
Видимость: 1400 м
Сплошная облачность на высоте 200 фута
дождь

TAF: UUOO 151400Z 1515/1524 14007MPS 3100 -RA BR OVC004 TEMPO 1516/1520 1400 RA OVC002

Метеонаблюдения и прогнозы для более 4000 аэропортов (сводки METAR и TAF).

Имеющиеся станции представлены на карте желтыми и красными точками.

Чтобы увидеть название станции, наведите на нее мышь.

Затем щелкните, чтобы увидеть метеонаблюдения и метеопрогнозы.

Управление картой: чтобы увеличить масштаб, щелкните зеленые кнопки с черным крестиком; чтобы уменьшить масштаб, щелкните зеленую кнопку с тире; для просмотра соседних карт щелкайте зеленые стрелки.


METAR-TAF: